sensor_id;sensor_type;location;lat;lon;timestamp;P1;durP1;ratioP1;P2;durP2;ratioP2
30010;SDS011;16851;53.564;8.112;2023-03-04T00:03:31;20.67;;;3.33;;
30010;SDS011;16851;53.564;8.112;2023-03-04T00:08:33;9.47;;;1.90;;
30010;SDS011;16851;53.564;8.112;2023-03-04T00:13:38;14.70;;;2.07;;
30010;SDS011;16851;53.564;8.112;2023-03-04T00:18:40;12.30;;;2.60;;
30010;SDS011;16851;53.564;8.112;2023-03-04T00:23:41;23.17;;;2.87;;
30010;SDS011;16851;53.564;8.112;2023-03-04T00:28:48;13.77;;;2.23;;
30010;SDS011;16851;53.564;8.112;2023-03-04T00:33:50;18.50;;;2.67;;
30010;SDS011;16851;53.564;8.112;2023-03-04T00:38:56;17.80;;;2.63;;
30010;SDS011;16851;53.564;8.112;2023-03-04T00:44:00;17.07;;;2.67;;
30010;SDS011;16851;53.564;8.112;2023-03-04T00:49:07;13.50;;;2.57;;
30010;SDS011;16851;53.564;8.112;2023-03-04T00:54:11;12.50;;;2.50;;
30010;SDS011;16851;53.564;8.112;2023-03-04T00:59:13;12.53;;;2.47;;
30010;SDS011;16851;53.564;8.112;2023-03-04T01:04:14;8.53;;;2.10;;
30010;SDS011;16851;53.564;8.112;2023-03-04T01:09:18;17.30;;;2.47;;
30010;SDS011;16851;53.564;8.112;2023-03-04T01:14:22;15.17;;;2.50;;
30010;SDS011;16851;53.564;8.112;2023-03-04T01:19:24;26.23;;;2.80;;
30010;SDS011;16851;53.564;8.112;2023-03-04T01:24:26;16.47;;;2.50;;
30010;SDS011;16851;53.564;8.112;2023-03-04T01:29:30;19.37;;;3.07;;
30010;SDS011;16851;53.564;8.112;2023-03-04T01:34:35;25.43;;;3.57;;
30010;SDS011;16851;53.564;8.112;2023-03-04T01:39:38;14.07;;;2.40;;
30010;SDS011;16851;53.564;8.112;2023-03-04T01:44:42;15.97;;;2.37;;
30010;SDS011;16851;53.564;8.112;2023-03-04T01:49:45;16.50;;;2.57;;
30010;SDS011;16851;53.564;8.112;2023-03-04T01:54:50;15.83;;;2.77;;
30010;SDS011;16851;53.564;8.112;2023-03-04T02:05:34;15.97;;;2.90;;
30010;SDS011;16851;53.564;8.112;2023-03-04T02:10:43;18.70;;;2.37;;
30010;SDS011;16851;53.564;8.112;2023-03-04T02:15:45;21.67;;;2.67;;
30010;SDS011;16851;53.564;8.112;2023-03-04T02:26:14;19.23;;;2.30;;
30010;SDS011;16851;53.564;8.112;2023-03-04T02:36:27;17.27;;;2.53;;
30010;SDS011;16851;53.564;8.112;2023-03-04T02:41:35;12.20;;;1.83;;
30010;SDS011;16851;53.564;8.112;2023-03-04T02:46:39;10.00;;;2.00;;
30010;SDS011;16851;53.564;8.112;2023-03-04T02:51:42;12.70;;;2.37;;
30010;SDS011;16851;53.564;8.112;2023-03-04T02:56:45;22.13;;;2.80;;
30010;SDS011;16851;53.564;8.112;2023-03-04T03:01:51;13.77;;;2.47;;
30010;SDS011;16851;53.564;8.112;2023-03-04T03:06:56;16.13;;;2.53;;
30010;SDS011;16851;53.564;8.112;2023-03-04T03:11:58;13.03;;;2.17;;
30010;SDS011;16851;53.564;8.112;2023-03-04T03:17:01;19.97;;;2.80;;
30010;SDS011;16851;53.564;8.112;2023-03-04T03:22:05;13.97;;;2.10;;
30010;SDS011;16851;53.564;8.112;2023-03-04T03:27:09;16.03;;;2.57;;
30010;SDS011;16851;53.564;8.112;2023-03-04T03:32:10;15.43;;;2.53;;
30010;SDS011;16851;53.564;8.112;2023-03-04T03:37:15;18.67;;;2.63;;
30010;SDS011;16851;53.564;8.112;2023-03-04T03:42:19;19.30;;;2.57;;
30010;SDS011;16851;53.564;8.112;2023-03-04T03:47:23;9.50;;;2.00;;
30010;SDS011;16851;53.564;8.112;2023-03-04T03:52:28;16.13;;;2.50;;
30010;SDS011;16851;53.564;8.112;2023-03-04T03:57:32;10.07;;;2.80;;
30010;SDS011;16851;53.564;8.112;2023-03-04T04:02:39;11.60;;;2.83;;
30010;SDS011;16851;53.564;8.112;2023-03-04T04:07:43;11.33;;;2.07;;
30010;SDS011;16851;53.564;8.112;2023-03-04T04:12:48;12.17;;;1.70;;
30010;SDS011;16851;53.564;8.112;2023-03-04T04:17:52;21.47;;;3.23;;
30010;SDS011;16851;53.564;8.112;2023-03-04T04:22:56;14.30;;;2.13;;
30010;SDS011;16851;53.564;8.112;2023-03-04T04:28:00;11.43;;;2.30;;
30010;SDS011;16851;53.564;8.112;2023-03-04T04:33:02;25.83;;;2.97;;
30010;SDS011;16851;53.564;8.112;2023-03-04T04:38:07;16.87;;;2.90;;
30010;SDS011;16851;53.564;8.112;2023-03-04T04:43:11;17.45;;;2.95;;
30010;SDS011;16851;53.564;8.112;2023-03-04T04:48:15;16.30;;;3.17;;
30010;SDS011;16851;53.564;8.112;2023-03-04T04:53:17;22.87;;;2.80;;
30010;SDS011;16851;53.564;8.112;2023-03-04T04:58:19;21.53;;;3.17;;
30010;SDS011;16851;53.564;8.112;2023-03-04T05:03:20;18.43;;;2.90;;
30010;SDS011;16851;53.564;8.112;2023-03-04T05:08:27;18.63;;;3.23;;
30010;SDS011;16851;53.564;8.112;2023-03-04T05:13:34;30.57;;;3.30;;
30010;SDS011;16851;53.564;8.112;2023-03-04T05:18:36;22.00;;;3.33;;
30010;SDS011;16851;53.564;8.112;2023-03-04T05:23:38;25.63;;;3.67;;
30010;SDS011;16851;53.564;8.112;2023-03-04T05:28:44;25.43;;;2.83;;
30010;SDS011;16851;53.564;8.112;2023-03-04T05:33:45;19.13;;;2.37;;
30010;SDS011;16851;53.564;8.112;2023-03-04T05:38:49;22.10;;;2.70;;
30010;SDS011;16851;53.564;8.112;2023-03-04T05:43:55;15.07;;;2.07;;
30010;SDS011;16851;53.564;8.112;2023-03-04T05:49:00;23.53;;;3.40;;
30010;SDS011;16851;53.564;8.112;2023-03-04T05:54:04;18.67;;;2.40;;
30010;SDS011;16851;53.564;8.112;2023-03-04T05:59:05;30.43;;;4.40;;
30010;SDS011;16851;53.564;8.112;2023-03-04T06:04:11;27.33;;;4.53;;
30010;SDS011;16851;53.564;8.112;2023-03-04T06:09:13;20.63;;;2.80;;
30010;SDS011;16851;53.564;8.112;2023-03-04T06:14:15;30.07;;;4.20;;
30010;SDS011;16851;53.564;8.112;2023-03-04T06:19:19;25.73;;;4.37;;
30010;SDS011;16851;53.564;8.112;2023-03-04T06:24:21;32.27;;;4.00;;
30010;SDS011;16851;53.564;8.112;2023-03-04T06:29:28;25.83;;;3.90;;
30010;SDS011;16851;53.564;8.112;2023-03-04T06:34:29;31.43;;;4.50;;
30010;SDS011;16851;53.564;8.112;2023-03-04T06:39:31;28.40;;;4.87;;
30010;SDS011;16851;53.564;8.112;2023-03-04T06:44:35;28.73;;;4.63;;
30010;SDS011;16851;53.564;8.112;2023-03-04T06:49:37;29.60;;;5.23;;
30010;SDS011;16851;53.564;8.112;2023-03-04T06:54:41;37.33;;;5.33;;
30010;SDS011;16851;53.564;8.112;2023-03-04T06:59:43;34.80;;;4.33;;
30010;SDS011;16851;53.564;8.112;2023-03-04T07:04:47;17.67;;;3.87;;
30010;SDS011;16851;53.564;8.112;2023-03-04T07:09:49;23.93;;;3.77;;
30010;SDS011;16851;53.564;8.112;2023-03-04T07:14:55;31.87;;;4.90;;
30010;SDS011;16851;53.564;8.112;2023-03-04T07:19:59;27.70;;;4.53;;
30010;SDS011;16851;53.564;8.112;2023-03-04T07:25:04;26.43;;;5.30;;
30010;SDS011;16851;53.564;8.112;2023-03-04T07:30:06;27.37;;;3.73;;
30010;SDS011;16851;53.564;8.112;2023-03-04T07:35:11;28.97;;;4.80;;
30010;SDS011;16851;53.564;8.112;2023-03-04T07:40:15;24.07;;;3.90;;
30010;SDS011;16851;53.564;8.112;2023-03-04T07:45:20;20.93;;;3.07;;
30010;SDS011;16851;53.564;8.112;2023-03-04T07:50:26;13.73;;;2.67;;
30010;SDS011;16851;53.564;8.112;2023-03-04T07:55:28;18.10;;;3.30;;
30010;SDS011;16851;53.564;8.112;2023-03-04T08:00:31;27.30;;;4.20;;
30010;SDS011;16851;53.564;8.112;2023-03-04T08:05:36;25.50;;;4.30;;
30010;SDS011;16851;53.564;8.112;2023-03-04T08:10:39;30.20;;;3.90;;
30010;SDS011;16851;53.564;8.112;2023-03-04T08:15:43;22.83;;;4.40;;
30010;SDS011;16851;53.564;8.112;2023-03-04T08:20:45;27.63;;;4.53;;
30010;SDS011;16851;53.564;8.112;2023-03-04T08:25:49;31.17;;;4.90;;
30010;SDS011;16851;53.564;8.112;2023-03-04T08:30:54;29.17;;;4.27;;
30010;SDS011;16851;53.564;8.112;2023-03-04T08:35:58;31.27;;;4.40;;
30010;SDS011;16851;53.564;8.112;2023-03-04T08:41:00;30.77;;;4.50;;
30010;SDS011;16851;53.564;8.112;2023-03-04T08:46:04;28.67;;;4.50;;
30010;SDS011;16851;53.564;8.112;2023-03-04T08:51:10;22.33;;;3.70;;
30010;SDS011;16851;53.564;8.112;2023-03-04T08:56:15;32.20;;;4.67;;
30010;SDS011;16851;53.564;8.112;2023-03-04T09:01:19;30.87;;;4.13;;
30010;SDS011;16851;53.564;8.112;2023-03-04T09:06:25;22.37;;;3.67;;
30010;SDS011;16851;53.564;8.112;2023-03-04T09:11:30;19.23;;;3.43;;
30010;SDS011;16851;53.564;8.112;2023-03-04T09:16:34;28.60;;;4.70;;
30010;SDS011;16851;53.564;8.112;2023-03-04T09:21:38;22.63;;;3.60;;
30010;SDS011;16851;53.564;8.112;2023-03-04T09:26:40;19.63;;;3.57;;
30010;SDS011;16851;53.564;8.112;2023-03-04T09:31:48;20.50;;;4.10;;
30010;SDS011;16851;53.564;8.112;2023-03-04T09:36:50;15.07;;;3.30;;
30010;SDS011;16851;53.564;8.112;2023-03-04T09:42:00;32.57;;;5.00;;
30010;SDS011;16851;53.564;8.112;2023-03-04T09:47:14;27.87;;;4.83;;
30010;SDS011;16851;53.564;8.112;2023-03-04T09:58:03;20.33;;;3.60;;
30010;SDS011;16851;53.564;8.112;2023-03-04T10:18:57;22.33;;;4.70;;
30010;SDS011;16851;53.564;8.112;2023-03-04T10:24:20;22.13;;;4.03;;
30010;SDS011;16851;53.564;8.112;2023-03-04T10:29:25;23.33;;;3.53;;
30010;SDS011;16851;53.564;8.112;2023-03-04T10:34:29;17.93;;;4.20;;
30010;SDS011;16851;53.564;8.112;2023-03-04T10:39:40;23.10;;;4.80;;
30010;SDS011;16851;53.564;8.112;2023-03-04T10:44:57;25.73;;;4.60;;
30010;SDS011;16851;53.564;8.112;2023-03-04T10:50:01;23.93;;;4.53;;
30010;SDS011;16851;53.564;8.112;2023-03-04T10:55:14;34.83;;;4.83;;
30010;SDS011;16851;53.564;8.112;2023-03-04T11:05:27;23.30;;;4.27;;
30010;SDS011;16851;53.564;8.112;2023-03-04T11:10:42;21.30;;;4.13;;
30010;SDS011;16851;53.564;8.112;2023-03-04T11:15:50;25.57;;;4.60;;
30010;SDS011;16851;53.564;8.112;2023-03-04T11:21:00;29.77;;;5.97;;
30010;SDS011;16851;53.564;8.112;2023-03-04T11:26:22;31.53;;;5.47;;
30010;SDS011;16851;53.564;8.112;2023-03-04T11:31:51;32.17;;;5.95;;
30010;SDS011;16851;53.564;8.112;2023-03-04T11:37:17;30.57;;;5.83;;
30010;SDS011;16851;53.564;8.112;2023-03-04T11:53:07;30.17;;;5.40;;
30010;SDS011;16851;53.564;8.112;2023-03-04T12:57:39;26.07;;;4.03;;
30010;SDS011;16851;53.564;8.112;2023-03-04T13:13:37;22.63;;;3.53;;
30010;SDS011;16851;53.564;8.112;2023-03-04T13:18:40;17.87;;;3.60;;
30010;SDS011;16851;53.564;8.112;2023-03-04T13:23:45;21.17;;;3.40;;
30010;SDS011;16851;53.564;8.112;2023-03-04T13:28:51;16.53;;;2.97;;
30010;SDS011;16851;53.564;8.112;2023-03-04T13:34:40;15.97;;;3.13;;
30010;SDS011;16851;53.564;8.112;2023-03-04T13:39:49;18.17;;;3.00;;
30010;SDS011;16851;53.564;8.112;2023-03-04T13:45:36;20.50;;;2.73;;
30010;SDS011;16851;53.564;8.112;2023-03-04T13:50:47;16.30;;;3.13;;
30010;SDS011;16851;53.564;8.112;2023-03-04T13:56:52;19.83;;;3.10;;
30010;SDS011;16851;53.564;8.112;2023-03-04T14:01:32;19.13;;;3.23;;
30010;SDS011;16851;53.564;8.112;2023-03-04T14:06:50;20.53;;;2.67;;
30010;SDS011;16851;53.564;8.112;2023-03-04T14:12:00;18.60;;;3.07;;
30010;SDS011;16851;53.564;8.112;2023-03-04T14:17:06;15.30;;;3.07;;
30010;SDS011;16851;53.564;8.112;2023-03-04T14:27:29;15.50;;;3.23;;
30010;SDS011;16851;53.564;8.112;2023-03-04T14:32:33;18.70;;;3.20;;
30010;SDS011;16851;53.564;8.112;2023-03-04T14:37:42;18.53;;;2.90;;
30010;SDS011;16851;53.564;8.112;2023-03-04T14:42:52;30.60;;;3.73;;
30010;SDS011;16851;53.564;8.112;2023-03-04T14:48:01;18.40;;;3.63;;
30010;SDS011;16851;53.564;8.112;2023-03-04T14:58:08;13.13;;;2.83;;
30010;SDS011;16851;53.564;8.112;2023-03-04T15:03:32;17.60;;;3.70;;
30010;SDS011;16851;53.564;8.112;2023-03-04T15:08:35;24.03;;;3.67;;
30010;SDS011;16851;53.564;8.112;2023-03-04T15:13:42;20.17;;;3.60;;
30010;SDS011;16851;53.564;8.112;2023-03-04T15:24:21;24.53;;;3.67;;
30010;SDS011;16851;53.564;8.112;2023-03-04T15:29:25;27.83;;;4.17;;
30010;SDS011;16851;53.564;8.112;2023-03-04T15:34:29;27.07;;;3.80;;
30010;SDS011;16851;53.564;8.112;2023-03-04T15:39:31;22.50;;;3.73;;
30010;SDS011;16851;53.564;8.112;2023-03-04T15:44:35;24.50;;;3.77;;
30010;SDS011;16851;53.564;8.112;2023-03-04T15:49:43;30.90;;;4.90;;
30010;SDS011;16851;53.564;8.112;2023-03-04T15:54:52;24.40;;;3.97;;
30010;SDS011;16851;53.564;8.112;2023-03-04T15:59:56;28.57;;;4.47;;
30010;SDS011;16851;53.564;8.112;2023-03-04T16:05:03;19.80;;;4.00;;
30010;SDS011;16851;53.564;8.112;2023-03-04T16:10:06;22.33;;;4.10;;
30010;SDS011;16851;53.564;8.112;2023-03-04T16:15:16;30.80;;;4.13;;
30010;SDS011;16851;53.564;8.112;2023-03-04T16:20:35;23.23;;;3.80;;
30010;SDS011;16851;53.564;8.112;2023-03-04T16:25:37;22.13;;;3.60;;
30010;SDS011;16851;53.564;8.112;2023-03-04T16:30:43;35.17;;;4.80;;
30010;SDS011;16851;53.564;8.112;2023-03-04T16:35:47;21.40;;;3.47;;
30010;SDS011;16851;53.564;8.112;2023-03-04T16:40:56;15.23;;;3.20;;
30010;SDS011;16851;53.564;8.112;2023-03-04T16:46:01;15.33;;;3.10;;
30010;SDS011;16851;53.564;8.112;2023-03-04T16:51:05;12.60;;;2.83;;
30010;SDS011;16851;53.564;8.112;2023-03-04T16:56:16;17.67;;;2.57;;
30010;SDS011;16851;53.564;8.112;2023-03-04T17:01:21;16.73;;;3.03;;
30010;SDS011;16851;53.564;8.112;2023-03-04T17:06:27;15.47;;;2.33;;
30010;SDS011;16851;53.564;8.112;2023-03-04T17:11:31;16.87;;;3.13;;
30010;SDS011;16851;53.564;8.112;2023-03-04T17:16:34;24.23;;;3.30;;
30010;SDS011;16851;53.564;8.112;2023-03-04T17:21:38;21.90;;;3.13;;
30010;SDS011;16851;53.564;8.112;2023-03-04T17:26:45;13.77;;;2.60;;
30010;SDS011;16851;53.564;8.112;2023-03-04T17:31:54;14.80;;;3.20;;
30010;SDS011;16851;53.564;8.112;2023-03-04T17:36:55;15.00;;;2.63;;
30010;SDS011;16851;53.564;8.112;2023-03-04T17:42:01;16.20;;;2.83;;
30010;SDS011;16851;53.564;8.112;2023-03-04T17:47:06;22.43;;;2.97;;
30010;SDS011;16851;53.564;8.112;2023-03-04T17:52:13;16.20;;;2.87;;
30010;SDS011;16851;53.564;8.112;2023-03-04T17:57:19;12.50;;;2.57;;
30010;SDS011;16851;53.564;8.112;2023-03-04T18:02:21;10.67;;;2.07;;
30010;SDS011;16851;53.564;8.112;2023-03-04T18:07:23;9.20;;;1.97;;
30010;SDS011;16851;53.564;8.112;2023-03-04T18:12:25;21.10;;;3.00;;
30010;SDS011;16851;53.564;8.112;2023-03-04T18:17:27;13.27;;;3.00;;
30010;SDS011;16851;53.564;8.112;2023-03-04T18:22:29;14.10;;;3.03;;
30010;SDS011;16851;53.564;8.112;2023-03-04T18:27:31;16.87;;;2.57;;
30010;SDS011;16851;53.564;8.112;2023-03-04T18:32:36;13.50;;;2.70;;
30010;SDS011;16851;53.564;8.112;2023-03-04T18:37:51;15.53;;;3.00;;
30010;SDS011;16851;53.564;8.112;2023-03-04T18:42:58;14.03;;;2.83;;
30010;SDS011;16851;53.564;8.112;2023-03-04T18:48:00;14.57;;;2.77;;
30010;SDS011;16851;53.564;8.112;2023-03-04T18:53:05;20.57;;;3.40;;
30010;SDS011;16851;53.564;8.112;2023-03-04T18:58:07;16.00;;;2.40;;
30010;SDS011;16851;53.564;8.112;2023-03-04T19:03:09;8.63;;;2.03;;
30010;SDS011;16851;53.564;8.112;2023-03-04T19:08:12;12.17;;;2.60;;
30010;SDS011;16851;53.564;8.112;2023-03-04T19:13:17;13.60;;;2.53;;
30010;SDS011;16851;53.564;8.112;2023-03-04T19:18:24;19.03;;;3.27;;
30010;SDS011;16851;53.564;8.112;2023-03-04T19:23:28;20.43;;;2.97;;
30010;SDS011;16851;53.564;8.112;2023-03-04T19:28:33;14.03;;;2.57;;
30010;SDS011;16851;53.564;8.112;2023-03-04T19:33:38;17.43;;;2.93;;
30010;SDS011;16851;53.564;8.112;2023-03-04T19:38:42;13.47;;;2.30;;
30010;SDS011;16851;53.564;8.112;2023-03-04T19:43:44;13.10;;;2.67;;
30010;SDS011;16851;53.564;8.112;2023-03-04T19:48:48;16.97;;;2.83;;
30010;SDS011;16851;53.564;8.112;2023-03-04T19:53:55;18.70;;;3.10;;
30010;SDS011;16851;53.564;8.112;2023-03-04T19:58:59;24.53;;;3.10;;
30010;SDS011;16851;53.564;8.112;2023-03-04T20:04:08;13.80;;;2.33;;
30010;SDS011;16851;53.564;8.112;2023-03-04T20:09:14;8.83;;;1.57;;
30010;SDS011;16851;53.564;8.112;2023-03-04T20:14:19;7.40;;;1.70;;
30010;SDS011;16851;53.564;8.112;2023-03-04T20:19:20;8.23;;;1.97;;
30010;SDS011;16851;53.564;8.112;2023-03-04T20:24:27;12.40;;;2.50;;
30010;SDS011;16851;53.564;8.112;2023-03-04T20:29:29;12.47;;;2.00;;
30010;SDS011;16851;53.564;8.112;2023-03-04T20:34:33;17.07;;;2.63;;
30010;SDS011;16851;53.564;8.112;2023-03-04T20:39:37;11.77;;;2.37;;
30010;SDS011;16851;53.564;8.112;2023-03-04T20:44:39;14.30;;;2.40;;
30010;SDS011;16851;53.564;8.112;2023-03-04T20:49:40;13.07;;;3.03;;
30010;SDS011;16851;53.564;8.112;2023-03-04T20:54:42;12.77;;;2.13;;
30010;SDS011;16851;53.564;8.112;2023-03-04T20:59:44;11.40;;;1.80;;
30010;SDS011;16851;53.564;8.112;2023-03-04T21:04:48;7.40;;;1.90;;
30010;SDS011;16851;53.564;8.112;2023-03-04T21:09:50;12.43;;;2.30;;
30010;SDS011;16851;53.564;8.112;2023-03-04T21:14:52;11.87;;;3.23;;
30010;SDS011;16851;53.564;8.112;2023-03-04T21:19:56;23.33;;;8.63;;
30010;SDS011;16851;53.564;8.112;2023-03-04T21:24:57;20.13;;;3.83;;
30010;SDS011;16851;53.564;8.112;2023-03-04T21:30:01;13.10;;;2.87;;
30010;SDS011;16851;53.564;8.112;2023-03-04T21:35:03;11.97;;;2.27;;
30010;SDS011;16851;53.564;8.112;2023-03-04T21:40:06;13.87;;;2.03;;
30010;SDS011;16851;53.564;8.112;2023-03-04T21:45:11;17.80;;;2.83;;
30010;SDS011;16851;53.564;8.112;2023-03-04T21:50:15;13.90;;;2.70;;
30010;SDS011;16851;53.564;8.112;2023-03-04T21:55:20;20.57;;;3.10;;
30010;SDS011;16851;53.564;8.112;2023-03-04T22:00:21;15.63;;;3.27;;
30010;SDS011;16851;53.564;8.112;2023-03-04T22:05:23;22.97;;;3.37;;
30010;SDS011;16851;53.564;8.112;2023-03-04T22:10:27;13.37;;;2.70;;
30010;SDS011;16851;53.564;8.112;2023-03-04T22:15:31;14.80;;;2.43;;
30010;SDS011;16851;53.564;8.112;2023-03-04T22:20:36;7.80;;;2.30;;
30010;SDS011;16851;53.564;8.112;2023-03-04T22:25:39;16.63;;;2.20;;
30010;SDS011;16851;53.564;8.112;2023-03-04T22:30:43;15.50;;;2.07;;
30010;SDS011;16851;53.564;8.112;2023-03-04T22:35:45;14.23;;;2.13;;
30010;SDS011;16851;53.564;8.112;2023-03-04T22:40:50;12.83;;;2.20;;
30010;SDS011;16851;53.564;8.112;2023-03-04T22:45:52;14.03;;;2.17;;
30010;SDS011;16851;53.564;8.112;2023-03-04T22:50:54;13.10;;;1.80;;
30010;SDS011;16851;53.564;8.112;2023-03-04T22:55:58;13.20;;;2.60;;
30010;SDS011;16851;53.564;8.112;2023-03-04T23:01:00;10.40;;;1.70;;
30010;SDS011;16851;53.564;8.112;2023-03-04T23:06:13;11.13;;;2.30;;
30010;SDS011;16851;53.564;8.112;2023-03-04T23:11:22;9.73;;;2.23;;
30010;SDS011;16851;53.564;8.112;2023-03-04T23:16:26;8.27;;;1.93;;
30010;SDS011;16851;53.564;8.112;2023-03-04T23:21:33;12.93;;;1.67;;
30010;SDS011;16851;53.564;8.112;2023-03-04T23:26:39;6.27;;;1.50;;
30010;SDS011;16851;53.564;8.112;2023-03-04T23:31:41;7.60;;;1.67;;
30010;SDS011;16851;53.564;8.112;2023-03-04T23:36:44;7.50;;;1.60;;
30010;SDS011;16851;53.564;8.112;2023-03-04T23:41:48;10.43;;;1.60;;
30010;SDS011;16851;53.564;8.112;2023-03-04T23:46:49;11.50;;;2.03;;
30010;SDS011;16851;53.564;8.112;2023-03-04T23:51:53;9.67;;;1.73;;
30010;SDS011;16851;53.564;8.112;2023-03-04T23:56:55;9.50;;;3.20;;
